createdAt,value
2018-11-21T00:00:21.120Z,95.6
2018-11-21T00:00:47.239Z,95.6
2018-11-21T00:01:13.366Z,95.41
2018-11-21T00:01:39.498Z,95.31
2018-11-21T00:02:05.624Z,95.79
2018-11-21T00:02:31.784Z,95.98
2018-11-21T00:02:57.907Z,95.88
2018-11-21T00:03:24.068Z,95.69
2018-11-21T00:03:50.227Z,95.5
2018-11-21T00:04:16.360Z,95.6
2018-11-21T00:04:42.485Z,95.6
2018-11-21T00:05:08.653Z,96.07
2018-11-21T00:05:34.788Z,95.5
2018-11-21T00:06:00.962Z,95.6
2018-11-21T00:06:27.090Z,95.88
2018-11-21T00:06:53.218Z,95.69
2018-11-21T00:07:19.349Z,95.69
2018-11-21T00:07:45.480Z,95.79
2018-11-21T00:08:11.633Z,95.98
2018-11-21T00:08:37.766Z,96.26
2018-11-21T00:09:03.896Z,96.07
2018-11-21T00:09:30.024Z,96.45
2018-11-21T00:09:56.158Z,96.36
2018-11-21T00:10:22.291Z,96.17
2018-11-21T00:10:48.424Z,96.17
2018-11-21T00:11:14.556Z,96.17
2018-11-21T00:11:40.686Z,96.55
2018-11-21T00:12:06.818Z,96.45
2018-11-21T00:12:32.939Z,96.07
2018-11-21T00:12:59.071Z,96.17
2018-11-21T00:13:25.230Z,96.17
2018-11-21T00:13:51.362Z,96.17
2018-11-21T00:14:17.492Z,96.17
2018-11-21T00:14:43.624Z,96.17
2018-11-21T00:15:09.750Z,96.17
2018-11-21T00:15:35.880Z,95.88
2018-11-21T00:16:02.005Z,96.64
2018-11-21T00:16:28.138Z,96.64
2018-11-21T00:16:54.272Z,95.98
2018-11-21T00:17:20.401Z,96.07
2018-11-21T00:17:46.539Z,96.17
2018-11-21T00:18:12.687Z,96.17
2018-11-21T00:18:38.839Z,95.88
2018-11-21T00:19:04.966Z,95.79
2018-11-21T00:19:31.124Z,95.5
2018-11-21T00:19:57.258Z,95.6
2018-11-21T00:20:23.391Z,95.69
2018-11-21T00:20:49.517Z,95.98
2018-11-21T00:21:15.658Z,95.98
2018-11-21T00:21:41.805Z,95.98
2018-11-21T00:22:07.940Z,95.88
2018-11-21T00:22:34.092Z,95.69
2018-11-21T00:23:00.248Z,95.79
2018-11-21T00:23:26.403Z,95.6
2018-11-21T00:23:52.527Z,95.98
2018-11-21T00:24:18.658Z,95.79
2018-11-21T00:24:44.807Z,95.79
2018-11-21T00:25:10.939Z,95.6
2018-11-21T00:25:37.070Z,95.12
2018-11-21T00:26:03.200Z,95.22
2018-11-21T00:26:29.334Z,95.6
2018-11-21T00:26:55.477Z,95.5
2018-11-21T00:27:21.605Z,95.41
2018-11-21T00:27:47.733Z,95.41
2018-11-21T00:28:13.891Z,95.41
2018-11-21T00:28:40.011Z,95.22
2018-11-21T00:29:06.150Z,95.12
2018-11-21T00:29:32.282Z,95.5
2018-11-21T00:29:58.400Z,95.79
2018-11-21T00:30:24.531Z,95.88
2018-11-21T00:30:50.659Z,95.98
2018-11-21T00:31:16.831Z,95.69
2018-11-21T00:31:42.965Z,95.69
2018-11-21T00:32:09.090Z,95.88
2018-11-21T00:32:35.217Z,95.69
2018-11-21T00:33:01.349Z,96.07
2018-11-21T00:33:27.501Z,95.5
2018-11-21T00:33:53.633Z,96.26
2018-11-21T00:34:19.765Z,96.17
2018-11-21T00:34:45.894Z,96.26
2018-11-21T00:35:12.024Z,96.45
2018-11-21T00:35:38.154Z,96.26
2018-11-21T00:36:04.291Z,96.45
2018-11-21T00:36:30.422Z,97.11
2018-11-21T00:36:56.570Z,97.11
2018-11-21T00:37:22.705Z,96.83
2018-11-21T00:37:48.864Z,96.78
2018-11-21T00:38:14.991Z,96.97
2018-11-21T00:38:41.125Z,96.92
2018-11-21T00:39:07.252Z,96.69
2018-11-21T00:39:33.390Z,97.11
2018-11-21T00:39:59.513Z,96.69
2018-11-21T00:40:25.664Z,96.83
2018-11-21T00:40:51.818Z,97.06
2018-11-21T00:41:17.974Z,97.16
2018-11-21T00:41:44.100Z,97.06
2018-11-21T00:42:10.237Z,96.69
2018-11-21T00:42:36.380Z,97.54
2018-11-21T00:43:02.513Z,97.4
2018-11-21T00:43:28.643Z,97.4
2018-11-21T00:43:54.769Z,97.54
2018-11-21T00:44:20.924Z,97.49
2018-11-21T00:44:47.049Z,97.02
2018-11-21T00:45:13.190Z,97.21
2018-11-21T00:45:39.304Z,97.16
2018-11-21T00:46:05.439Z,96.83
2018-11-21T00:46:31.570Z,96.88
2018-11-21T00:46:57.702Z,97.16
2018-11-21T00:47:23.832Z,96.78
2018-11-21T00:47:49.973Z,96.88
2018-11-21T00:48:16.099Z,96.88
2018-11-21T00:48:42.229Z,96.78
2018-11-21T00:49:08.354Z,97.06
2018-11-21T00:49:34.520Z,97.4
2018-11-21T00:50:00.654Z,96.97
2018-11-21T00:50:26.982Z,96.97
2018-11-21T00:50:53.106Z,97.35
2018-11-21T00:51:19.239Z,96.97
2018-11-21T00:51:45.366Z,97.25
2018-11-21T00:52:11.500Z,97.4
2018-11-21T00:52:37.624Z,97.02
2018-11-21T00:53:03.784Z,96.97
2018-11-21T00:53:29.913Z,96.78
2018-11-21T00:53:56.045Z,96.97
2018-11-21T00:54:22.191Z,96.97
2018-11-21T00:54:48.380Z,96.97
2018-11-21T00:55:14.524Z,96.97
2018-11-21T00:55:40.666Z,97.06
2018-11-21T00:56:06.799Z,96.97
2018-11-21T00:56:32.930Z,97.44
2018-11-21T00:57:00.126Z,97.35
2018-11-21T00:57:26.271Z,96.97
2018-11-21T00:57:52.397Z,97.06
2018-11-21T00:58:18.637Z,97.06
2018-11-21T00:58:44.802Z,97.92
2018-11-21T00:59:10.933Z,97.54
2018-11-21T00:59:37.059Z,97.44
2018-11-21T01:00:03.192Z,97.25
2018-11-21T01:00:29.349Z,97.16
2018-11-21T01:00:55.475Z,97.82
2018-11-21T01:01:21.627Z,98.01
2018-11-21T01:01:47.757Z,97.92
2018-11-21T01:02:13.889Z,97.73
2018-11-21T01:02:40.018Z,97.73
2018-11-21T01:03:06.175Z,97.73
2018-11-21T01:03:32.329Z,98.01
2018-11-21T01:03:58.472Z,98.01
2018-11-21T01:04:24.601Z,97.63
2018-11-21T01:04:50.738Z,97.73
2018-11-21T01:05:16.866Z,97.73
2018-11-21T01:05:42.998Z,97.63
2018-11-21T01:06:09.136Z,97.92
2018-11-21T01:06:35.265Z,98.01
2018-11-21T01:07:01.396Z,98.11
2018-11-21T01:07:27.546Z,97.92
2018-11-21T01:07:53.676Z,97.73
2018-11-21T01:08:19.803Z,97.73
2018-11-21T01:08:45.939Z,97.92
2018-11-21T01:09:12.071Z,97.82
2018-11-21T01:09:38.203Z,97.92
2018-11-21T01:10:04.328Z,97.92
2018-11-21T01:10:30.460Z,97.63
2018-11-21T01:10:56.595Z,97.16
2018-11-21T01:11:22.720Z,97.44
2018-11-21T01:11:48.859Z,97.16
2018-11-21T01:12:14.986Z,97.44
2018-11-21T01:12:41.122Z,97.73
2018-11-21T01:13:07.241Z,97.54
2018-11-21T01:13:33.381Z,97.44
2018-11-21T01:13:59.510Z,97.35
2018-11-21T01:14:25.640Z,97.44
2018-11-21T01:14:51.773Z,97.16
2018-11-21T01:15:17.908Z,97.35
2018-11-21T01:15:44.034Z,97.92
2018-11-21T01:16:10.162Z,97.92
2018-11-21T01:16:36.313Z,97.54
2018-11-21T01:17:02.449Z,97.73
2018-11-21T01:17:28.582Z,97.16
2018-11-21T01:17:54.714Z,97.25
2018-11-21T01:18:20.850Z,97.44
2018-11-21T01:18:46.979Z,97.35
2018-11-21T01:19:13.107Z,96.78
2018-11-21T01:19:39.242Z,96.78
2018-11-21T01:20:05.364Z,96.97
2018-11-21T01:20:31.489Z,96.78
2018-11-21T01:20:57.621Z,96.97
2018-11-21T01:21:23.784Z,96.69
2018-11-21T01:21:49.917Z,96.88
2018-11-21T01:22:16.050Z,96.78
2018-11-21T01:22:42.202Z,97.06
2018-11-21T01:23:08.330Z,96.88
2018-11-21T01:23:34.458Z,96.88
2018-11-21T01:24:00.613Z,97.16
2018-11-21T01:24:26.740Z,97.16
2018-11-21T01:24:52.864Z,96.78
2018-11-21T01:25:18.997Z,96.88
2018-11-21T01:25:45.157Z,96.78
2018-11-21T01:26:11.280Z,96.88
2018-11-21T01:26:37.412Z,97.16
2018-11-21T01:27:03.533Z,97.16
2018-11-21T01:27:29.668Z,96.78
2018-11-21T01:27:55.799Z,96.88
2018-11-21T01:28:21.944Z,96.88
2018-11-21T01:28:48.075Z,97.06
2018-11-21T01:29:14.208Z,96.59
2018-11-21T01:29:40.359Z,96.78
2018-11-21T01:30:06.494Z,96.88
2018-11-21T01:30:32.641Z,96.88
2018-11-21T01:30:58.767Z,96.97
2018-11-21T01:31:24.897Z,96.64
2018-11-21T01:31:51.023Z,97.21
2018-11-21T01:32:17.153Z,97.16
2018-11-21T01:32:43.279Z,97.16
2018-11-21T01:33:09.823Z,97.25
2018-11-21T01:33:35.581Z,97.25
2018-11-21T01:34:01.716Z,96.69
2018-11-21T01:34:27.872Z,97.11
2018-11-21T01:34:54.030Z,96.45
2018-11-21T01:35:20.186Z,96.64
2018-11-21T01:35:46.339Z,96.21
2018-11-21T01:36:12.486Z,96.17
2018-11-21T01:36:38.596Z,96.45
2018-11-21T01:37:04.726Z,96.55
2018-11-21T01:37:30.859Z,96.45
2018-11-21T01:37:56.994Z,96.07
2018-11-21T01:38:23.126Z,95.98
2018-11-21T01:38:49.247Z,95.98
2018-11-21T01:39:15.379Z,96.07
2018-11-21T01:39:41.535Z,96.55
2018-11-21T01:40:07.670Z,95.79
2018-11-21T01:40:33.800Z,95.98
2018-11-21T01:40:59.950Z,95.41
2018-11-21T01:41:26.084Z,95.5
2018-11-21T01:41:52.213Z,96.07
2018-11-21T01:42:18.361Z,95.69
2018-11-21T01:42:44.498Z,96.07
2018-11-21T01:43:10.649Z,95.69
2018-11-21T01:43:36.788Z,95.69
2018-11-21T01:44:02.921Z,95.98
2018-11-21T01:44:29.051Z,95.5
2018-11-21T01:44:55.185Z,95.69
2018-11-21T01:45:21.319Z,95.69
2018-11-21T01:45:47.455Z,95.98
2018-11-21T01:46:13.607Z,95.69
2018-11-21T01:46:39.735Z,96.07
2018-11-21T01:47:05.861Z,95.64
2018-11-21T01:47:31.995Z,95.64
2018-11-21T01:47:58.123Z,95.5
2018-11-21T01:48:24.257Z,95.74
2018-11-21T01:48:50.410Z,95.79
2018-11-21T01:49:16.543Z,96.26
2018-11-21T01:49:42.718Z,96.36
2018-11-21T01:50:08.890Z,95.88
2018-11-21T01:50:35.004Z,95.83
2018-11-21T01:51:01.134Z,96.36
2018-11-21T01:51:27.261Z,96.12
2018-11-21T01:51:53.425Z,96.21
2018-11-21T01:52:19.551Z,96.31
2018-11-21T01:52:45.688Z,96.26
2018-11-21T01:53:11.821Z,95.79
2018-11-21T01:53:37.955Z,95.79
2018-11-21T01:54:04.078Z,96.26
2018-11-21T01:54:30.216Z,96.26
2018-11-21T01:54:56.341Z,95.79
2018-11-21T01:55:22.474Z,95.79
2018-11-21T01:55:48.599Z,95.6
2018-11-21T01:56:14.730Z,95.74
2018-11-21T01:56:40.857Z,96.07
2018-11-21T01:57:07.007Z,95.64
2018-11-21T01:57:33.146Z,95.93
2018-11-21T01:57:59.278Z,95.55
2018-11-21T01:58:25.406Z,95.6
2018-11-21T01:58:51.557Z,95.6
2018-11-21T01:59:17.707Z,95.79
2018-11-21T01:59:43.845Z,95.88
2018-11-21T02:00:09.997Z,95.6
2018-11-21T02:00:36.133Z,95.45
2018-11-21T02:01:02.266Z,95.6
2018-11-21T02:01:28.417Z,95.55
2018-11-21T02:01:54.545Z,95.6
2018-11-21T02:02:20.685Z,95.74
2018-11-21T02:02:46.812Z,95.83
2018-11-21T02:03:12.942Z,95.74
2018-11-21T02:03:39.089Z,95.64
2018-11-21T02:04:05.270Z,95.83
2018-11-21T02:04:31.405Z,95.55
2018-11-21T02:04:57.526Z,95.45
2018-11-21T02:05:23.664Z,95.69
2018-11-21T02:05:49.794Z,95.64
2018-11-21T02:06:15.918Z,95.88
2018-11-21T02:06:42.072Z,95.45
2018-11-21T02:07:08.200Z,95.93
2018-11-21T02:07:34.327Z,95.74
2018-11-21T02:08:00.483Z,95.79
2018-11-21T02:08:26.617Z,95.74
2018-11-21T02:08:52.773Z,95.83
2018-11-21T02:09:18.926Z,95.74
2018-11-21T02:09:45.078Z,95.5
2018-11-21T02:10:11.212Z,95.55
2018-11-21T02:10:37.341Z,95.55
2018-11-21T02:11:03.472Z,95.69
2018-11-21T02:11:29.628Z,95.88
2018-11-21T02:11:55.777Z,95.98
2018-11-21T02:12:21.908Z,95.98
2018-11-21T02:12:48.038Z,95.41
2018-11-21T02:13:14.170Z,95.26
2018-11-21T02:13:40.298Z,95.6
2018-11-21T02:14:06.432Z,95.83
2018-11-21T02:14:32.568Z,95.41
2018-11-21T02:14:58.691Z,95.31
2018-11-21T02:15:24.843Z,95.03
2018-11-21T02:15:51.000Z,95.6
2018-11-21T02:16:17.146Z,95.5
2018-11-21T02:16:43.307Z,95.31
2018-11-21T02:17:09.457Z,95.22
2018-11-21T02:17:35.598Z,95.45
2018-11-21T02:18:01.750Z,95.41
2018-11-21T02:18:27.898Z,95.31
2018-11-21T02:18:54.029Z,95.31
2018-11-21T02:19:20.159Z,95.41
2018-11-21T02:19:46.309Z,95.31
2018-11-21T02:20:12.492Z,95.22
2018-11-21T02:20:38.624Z,95.31
2018-11-21T02:21:04.765Z,95.5
2018-11-21T02:21:30.891Z,95.12
2018-11-21T02:21:57.016Z,94.93
2018-11-21T02:22:23.143Z,94.93
2018-11-21T02:22:49.306Z,94.84
2018-11-21T02:23:15.427Z,94.37
2018-11-21T02:23:41.560Z,94.65
2018-11-21T02:24:07.687Z,94.84
2018-11-21T02:24:33.820Z,94.65
2018-11-21T02:24:59.948Z,94.18
2018-11-21T02:25:26.085Z,94.18
2018-11-21T02:25:52.214Z,94.27
2018-11-21T02:26:18.343Z,94.37
2018-11-21T02:26:44.474Z,94.46
2018-11-21T02:27:10.649Z,94.37
2018-11-21T02:27:36.779Z,94.46
2018-11-21T02:28:02.912Z,94.46
2018-11-21T02:28:29.063Z,93.89
2018-11-21T02:28:55.193Z,93.8
2018-11-21T02:29:21.330Z,93.7
2018-11-21T02:29:47.456Z,93.61
2018-11-21T02:30:13.702Z,93.7
2018-11-21T02:30:39.800Z,93.61
2018-11-21T02:31:05.979Z,93.8
2018-11-21T02:31:32.135Z,93.8
2018-11-21T02:31:58.292Z,93.7
2018-11-21T02:32:24.419Z,93.89
2018-11-21T02:32:50.549Z,93.7
2018-11-21T02:33:16.705Z,93.8
2018-11-21T02:33:42.831Z,93.7
2018-11-21T02:34:08.987Z,93.8
2018-11-21T02:34:35.123Z,93.7
2018-11-21T02:35:01.279Z,94.08
2018-11-21T02:35:27.437Z,94.18
2018-11-21T02:35:53.613Z,94.37
2018-11-21T02:36:19.789Z,94.37
2018-11-21T02:36:45.921Z,93.61
2018-11-21T02:37:12.077Z,93.61
2018-11-21T02:37:38.211Z,93.61
2018-11-21T02:38:04.385Z,93.42
2018-11-21T02:38:30.522Z,93.61
2018-11-21T02:38:56.675Z,93.61
2018-11-21T02:39:22.810Z,93.23
2018-11-21T02:39:48.932Z,93.32
2018-11-21T02:40:15.066Z,93.23
2018-11-21T02:40:41.200Z,93.13
2018-11-21T02:41:07.401Z,93.23
2018-11-21T02:41:33.564Z,93.23
2018-11-21T02:41:59.720Z,92.94
2018-11-21T02:42:25.900Z,93.13
2018-11-21T02:42:52.029Z,93.32
2018-11-21T02:43:18.191Z,93.04
2018-11-21T02:43:44.343Z,92.57
2018-11-21T02:44:10.486Z,93.32
2018-11-21T02:44:36.641Z,92.66
2018-11-21T02:45:02.796Z,92.57
2018-11-21T02:45:28.943Z,93.13
2018-11-21T02:45:55.101Z,93.23
2018-11-21T02:46:21.232Z,93.04
2018-11-21T02:46:47.397Z,93.42
2018-11-21T02:47:13.528Z,93.13
2018-11-21T02:47:39.657Z,93.23
2018-11-21T02:48:05.827Z,93.13
2018-11-21T02:48:31.954Z,93.32
2018-11-21T02:48:58.075Z,93.32
2018-11-21T02:49:24.212Z,92.94
2018-11-21T02:49:50.386Z,92.66
2018-11-21T02:50:16.532Z,92.85
2018-11-21T02:50:42.664Z,92.94
2018-11-21T02:51:08.823Z,92.09
2018-11-21T02:51:34.982Z,93.04
2018-11-21T02:52:01.135Z,92.76
2018-11-21T02:52:27.266Z,93.04
2018-11-21T02:52:53.403Z,92.76
2018-11-21T02:53:19.536Z,92.85
2018-11-21T02:53:45.711Z,92.85
2018-11-21T02:54:11.866Z,92.85
2018-11-21T02:54:38.043Z,92.76
2018-11-21T02:55:04.197Z,92.94
2018-11-21T02:55:30.422Z,92.85
2018-11-21T02:55:56.580Z,92.57
2018-11-21T02:56:22.718Z,92.76
2018-11-21T02:56:48.918Z,93.04
2018-11-21T02:57:15.045Z,93.23
2018-11-21T02:57:41.222Z,92.66
2018-11-21T02:58:07.375Z,93.32
2018-11-21T02:58:33.505Z,92.66
2018-11-21T02:58:59.638Z,92.76
2018-11-21T02:59:25.818Z,92.19
2018-11-21T02:59:51.994Z,92.57
2018-11-21T03:00:18.170Z,92.38
2018-11-21T03:00:44.318Z,92.66
2018-11-21T03:01:10.525Z,92
2018-11-21T03:01:36.674Z,91.9
2018-11-21T03:02:02.833Z,92.38
2018-11-21T03:02:29.010Z,92.28
2018-11-21T03:02:55.139Z,91.81
2018-11-21T03:03:21.261Z,91.81
2018-11-21T03:03:47.397Z,91.81
2018-11-21T03:04:13.529Z,91.62
2018-11-21T03:04:39.673Z,91.62
2018-11-21T03:05:05.800Z,92
2018-11-21T03:05:31.951Z,92.19
2018-11-21T03:05:58.134Z,91.43
2018-11-21T03:06:24.288Z,91.71
2018-11-21T03:06:50.464Z,91.9
2018-11-21T03:07:16.595Z,91.62
2018-11-21T03:07:42.731Z,92.09
2018-11-21T03:08:08.863Z,92.14
2018-11-21T03:08:34.998Z,92
2018-11-21T03:09:01.175Z,91.81
2018-11-21T03:09:27.309Z,91.71
2018-11-21T03:09:53.456Z,91.62
2018-11-21T03:10:19.613Z,92.09
2018-11-21T03:10:45.746Z,91.81
2018-11-21T03:11:11.964Z,92.09
2018-11-21T03:11:38.110Z,91.24
2018-11-21T03:12:04.259Z,91.62
2018-11-21T03:12:30.416Z,91.52
2018-11-21T03:12:56.544Z,91.62
2018-11-21T03:13:27.701Z,91.9
2018-11-21T03:13:48.849Z,91.43
2018-11-21T03:14:14.974Z,91.62
2018-11-21T03:14:41.110Z,91.52
2018-11-21T03:15:07.254Z,91.9
2018-11-21T03:15:33.427Z,91.9
2018-11-21T03:15:59.559Z,91.81
2018-11-21T03:16:25.720Z,92.09
2018-11-21T03:16:51.848Z,91.43
2018-11-21T03:17:18.013Z,91.9
2018-11-21T03:17:44.142Z,92
2018-11-21T03:18:10.294Z,91.62
2018-11-21T03:18:36.421Z,91.62
2018-11-21T03:19:02.567Z,91.43
2018-11-21T03:19:28.704Z,91.43
2018-11-21T03:19:54.851Z,91.24
2018-11-21T03:20:20.981Z,91.62
2018-11-21T03:20:47.153Z,91.81
2018-11-21T03:21:13.283Z,92.09
2018-11-21T03:21:39.422Z,91.71
2018-11-21T03:22:05.544Z,91.71
2018-11-21T03:22:31.671Z,91.81
2018-11-21T03:22:57.824Z,91.71
2018-11-21T03:23:24.000Z,91.81
2018-11-21T03:23:50.176Z,91.9
2018-11-21T03:24:16.349Z,91.62
2018-11-21T03:24:42.529Z,92
2018-11-21T03:25:08.686Z,91.81
2018-11-21T03:25:34.888Z,91.81
2018-11-21T03:26:01.020Z,91.62
2018-11-21T03:26:27.186Z,91.62
2018-11-21T03:26:53.322Z,91.81
2018-11-21T03:27:19.474Z,92
2018-11-21T03:27:45.605Z,91.62
2018-11-21T03:28:11.737Z,91.81
2018-11-21T03:28:37.897Z,91.81
2018-11-21T03:29:04.024Z,91.62
2018-11-21T03:29:30.173Z,92.19
2018-11-21T03:29:56.330Z,91.43
2018-11-21T03:30:22.530Z,92
2018-11-21T03:30:48.762Z,92.09
2018-11-21T03:31:14.917Z,91.81
2018-11-21T03:31:41.138Z,91.52
2018-11-21T03:32:07.315Z,91.62
2018-11-21T03:32:33.562Z,91.62
2018-11-21T03:32:59.727Z,91.62
2018-11-21T03:33:25.861Z,92.09
2018-11-21T03:33:57.644Z,91.62
2018-11-21T03:34:18.151Z,91.62
2018-11-21T03:34:44.284Z,91.71
2018-11-21T03:35:10.437Z,91.71
2018-11-21T03:35:36.610Z,91.38
2018-11-21T03:36:02.804Z,91.24
2018-11-21T03:36:28.932Z,91.43
2018-11-21T03:36:55.115Z,91.14
2018-11-21T03:37:21.215Z,91.52
2018-11-21T03:37:47.350Z,90.86
2018-11-21T03:38:13.528Z,90.95
2018-11-21T03:38:39.696Z,91.05
2018-11-21T03:39:05.866Z,91.24
2018-11-21T03:39:32.026Z,91.62
2018-11-21T03:39:58.153Z,91.14
2018-11-21T03:40:24.322Z,91.05
2018-11-21T03:40:50.442Z,91.28
2018-11-21T03:41:16.625Z,90.95
2018-11-21T03:41:42.809Z,91.52
2018-11-21T03:42:08.991Z,91.52
2018-11-21T03:42:35.142Z,91.24
2018-11-21T03:43:01.320Z,91.33
2018-11-21T03:43:27.469Z,90.95
2018-11-21T03:43:53.605Z,91.24
2018-11-21T03:44:19.760Z,91.05
2018-11-21T03:44:45.915Z,91.24
2018-11-21T03:45:12.046Z,91.24
2018-11-21T03:45:38.207Z,91.24
2018-11-21T03:46:04.364Z,91.24
2018-11-21T03:46:30.538Z,90.95
2018-11-21T03:46:56.673Z,91.24
2018-11-21T03:47:22.830Z,91.24
2018-11-21T03:47:48.958Z,91.05
2018-11-21T03:48:15.137Z,91.62
2018-11-21T03:48:41.319Z,91.43
2018-11-21T03:49:07.441Z,91.71
2018-11-21T03:49:33.603Z,91.81
2018-11-21T03:49:59.730Z,92
2018-11-21T03:50:25.884Z,92
2018-11-21T03:50:52.041Z,91.9
2018-11-21T03:51:18.190Z,91.43
2018-11-21T03:51:44.323Z,91.81
2018-11-21T03:52:10.455Z,91.71
2018-11-21T03:52:36.604Z,91.81
2018-11-21T03:53:02.743Z,91.62
2018-11-21T03:53:28.894Z,92
2018-11-21T03:53:55.028Z,91.62
2018-11-21T03:54:21.200Z,91.62
2018-11-21T03:54:47.358Z,91.71
2018-11-21T03:55:13.518Z,92
2018-11-21T03:55:39.728Z,92
2018-11-21T03:56:05.876Z,92.28
2018-11-21T03:56:32.053Z,92.28
2018-11-21T03:56:58.213Z,92.28
2018-11-21T03:57:24.372Z,91.9
2018-11-21T03:57:50.548Z,92
2018-11-21T03:58:16.672Z,92.09
2018-11-21T03:58:42.815Z,92.19
2018-11-21T03:59:09.011Z,91.9
2018-11-21T03:59:35.154Z,91.81
2018-11-21T04:00:01.305Z,91.9
2018-11-21T04:00:27.453Z,91.81
2018-11-21T04:00:53.600Z,91.81
2018-11-21T04:01:19.736Z,91.43
2018-11-21T04:01:45.940Z,91.33
2018-11-21T04:02:12.100Z,91.81
2018-11-21T04:02:38.255Z,91.71
2018-11-21T04:03:04.383Z,92.09
2018-11-21T04:03:30.515Z,91.81
2018-11-21T04:03:56.665Z,91.62
2018-11-21T04:04:22.870Z,91.43
2018-11-21T04:04:49.005Z,91.43
2018-11-21T04:05:15.189Z,91.71
2018-11-21T04:05:41.339Z,92.09
2018-11-21T04:06:07.479Z,91.52
2018-11-21T04:06:33.611Z,92.19
2018-11-21T04:06:59.749Z,91.62
2018-11-21T04:07:25.878Z,91.71
2018-11-21T04:07:52.012Z,92.09
2018-11-21T04:08:18.166Z,91.9
2018-11-21T04:08:44.340Z,91.62
2018-11-21T04:09:10.469Z,91.71
2018-11-21T04:09:36.642Z,91.71
2018-11-21T04:10:02.770Z,92.09
2018-11-21T04:10:28.901Z,91.24
2018-11-21T04:10:55.058Z,91.62
2018-11-21T04:11:21.201Z,92
2018-11-21T04:11:47.395Z,92.28
2018-11-21T04:12:13.548Z,91.43
2018-11-21T04:12:39.684Z,91.43
2018-11-21T04:13:05.808Z,91.24
2018-11-21T04:13:31.967Z,92.09
2018-11-21T04:13:58.103Z,91.81
2018-11-21T04:14:24.230Z,92.09
2018-11-21T04:14:50.357Z,91.9
2018-11-21T04:15:16.540Z,91.9
2018-11-21T04:15:42.668Z,91.81
2018-11-21T04:16:08.851Z,91.81
2018-11-21T04:16:35.011Z,92
2018-11-21T04:17:01.169Z,92.09
2018-11-21T04:17:27.357Z,91.9
2018-11-21T04:17:53.482Z,91.81
2018-11-21T04:18:19.665Z,91.9
2018-11-21T04:18:45.799Z,91.71
2018-11-21T04:19:11.947Z,91.9
2018-11-21T04:19:38.083Z,92
2018-11-21T04:20:04.240Z,91.81
2018-11-21T04:20:30.401Z,91.71
2018-11-21T04:20:56.548Z,91.62
2018-11-21T04:21:22.717Z,91.81
2018-11-21T04:21:48.894Z,91.9
2018-11-21T04:22:15.031Z,91.43
2018-11-21T04:22:41.191Z,91.52
2018-11-21T04:23:07.333Z,91.14
2018-11-21T04:23:33.459Z,91.33
2018-11-21T04:23:59.608Z,91.33
2018-11-21T04:24:25.755Z,91.43
2018-11-21T04:24:51.907Z,91.62
2018-11-21T04:25:18.043Z,91.62
2018-11-21T04:25:44.192Z,91.71
2018-11-21T04:26:10.323Z,91.81
2018-11-21T04:26:36.454Z,91.9
2018-11-21T04:27:02.612Z,92.19
2018-11-21T04:27:28.738Z,91.9
2018-11-21T04:27:54.876Z,91.81
2018-11-21T04:28:21.001Z,92.19
2018-11-21T04:28:47.136Z,92.09
2018-11-21T04:29:13.266Z,91.81
2018-11-21T04:29:39.456Z,92.38
2018-11-21T04:30:05.635Z,92.28
2018-11-21T04:30:31.826Z,92.38
2018-11-21T04:30:58.019Z,91.9
2018-11-21T04:31:24.174Z,91.71
2018-11-21T04:31:50.326Z,91.81
2018-11-21T04:32:16.474Z,92
2018-11-21T04:32:42.656Z,92
2018-11-21T04:33:08.824Z,91.71
2018-11-21T04:33:34.983Z,91.81
2018-11-21T04:34:01.155Z,91.71
2018-11-21T04:34:27.303Z,92
2018-11-21T04:34:53.426Z,91.81
2018-11-21T04:35:19.584Z,92
2018-11-21T04:35:45.730Z,92.09
2018-11-21T04:36:11.889Z,91.81
2018-11-21T04:36:38.047Z,92.09
2018-11-21T04:37:04.200Z,92
2018-11-21T04:37:30.332Z,92
2018-11-21T04:37:56.463Z,92.09
2018-11-21T04:38:22.593Z,92.19
2018-11-21T04:38:48.752Z,92.19
2018-11-21T04:39:14.908Z,92.28
2018-11-21T04:39:41.044Z,91.71
2018-11-21T04:40:07.221Z,91.9
2018-11-21T04:40:33.331Z,92
2018-11-21T04:40:59.533Z,91.52
2018-11-21T04:41:25.688Z,91.9
2018-11-21T04:41:51.839Z,92.09
2018-11-21T04:42:18.019Z,91.81
2018-11-21T04:42:44.171Z,91.62
2018-11-21T04:43:10.306Z,92
2018-11-21T04:43:36.467Z,91.62
2018-11-21T04:44:02.640Z,91.9
2018-11-21T04:44:28.804Z,91.62
2018-11-21T04:44:54.963Z,91.85
2018-11-21T04:45:21.097Z,91.85
2018-11-21T04:45:47.290Z,91.76
2018-11-21T04:46:13.496Z,91.33
2018-11-21T04:46:39.650Z,92.19
2018-11-21T04:47:05.783Z,92
2018-11-21T04:47:31.919Z,91.62
2018-11-21T04:47:58.051Z,91.81
2018-11-21T04:48:24.181Z,92.28
2018-11-21T04:48:50.309Z,91.81
2018-11-21T04:49:16.467Z,91.9
2018-11-21T04:49:42.597Z,91.9
2018-11-21T04:50:08.779Z,91.62
2018-11-21T04:50:34.931Z,91.62
2018-11-21T04:51:01.066Z,92
2018-11-21T04:51:27.201Z,91.81
2018-11-21T04:51:53.331Z,91.62
2018-11-21T04:52:19.486Z,91.62
2018-11-21T04:52:45.607Z,91.81
2018-11-21T04:53:11.746Z,92
2018-11-21T04:53:37.941Z,91.71
2018-11-21T04:54:04.047Z,91.9
2018-11-21T04:54:30.240Z,91.9
2018-11-21T04:54:56.423Z,91.81
2018-11-21T04:55:22.608Z,92
2018-11-21T04:55:48.723Z,91.81
2018-11-21T04:56:14.885Z,92
2018-11-21T04:56:41.045Z,91.9
2018-11-21T04:57:07.193Z,91.81
2018-11-21T04:57:33.329Z,91.9
2018-11-21T04:57:59.482Z,92
2018-11-21T04:58:25.615Z,91.9
2018-11-21T04:58:51.748Z,92.28
2018-11-21T04:59:17.879Z,92
2018-11-21T04:59:44.006Z,92.19
2018-11-21T05:00:10.158Z,91.62
2018-11-21T05:00:36.290Z,91.62
2018-11-21T05:01:02.488Z,91.62
2018-11-21T05:01:28.575Z,92
2018-11-21T05:01:54.725Z,92.19
2018-11-21T05:02:20.879Z,92.57
2018-11-21T05:02:47.005Z,92.66
2018-11-21T05:03:13.133Z,92.57
2018-11-21T05:03:39.292Z,92.38
2018-11-21T05:04:05.444Z,92.57
2018-11-21T05:04:31.598Z,92.57
2018-11-21T05:04:57.729Z,92.66
2018-11-21T05:05:23.863Z,92.57
2018-11-21T05:05:49.994Z,92.47
2018-11-21T05:06:16.127Z,92.66
2018-11-21T05:06:42.257Z,92.47
2018-11-21T05:07:08.415Z,92.57
2018-11-21T05:07:34.546Z,92.19
2018-11-21T05:08:00.673Z,92.57
2018-11-21T05:08:26.807Z,92.38
2018-11-21T05:08:52.962Z,92.57
2018-11-21T05:09:19.094Z,92.57
2018-11-21T05:09:45.215Z,92.57
2018-11-21T05:10:11.381Z,92.57
2018-11-21T05:10:37.535Z,92.76
2018-11-21T05:11:03.682Z,92.47
2018-11-21T05:11:29.828Z,92.47
2018-11-21T05:11:55.984Z,92.28
2018-11-21T05:12:22.139Z,92.38
2018-11-21T05:12:48.265Z,92.28
2018-11-21T05:13:14.393Z,92.47
2018-11-21T05:13:40.530Z,92.57
2018-11-21T05:14:06.659Z,92.76
2018-11-21T05:14:32.813Z,92.76
2018-11-21T05:14:58.967Z,92.57
2018-11-21T05:15:25.125Z,92.76
2018-11-21T05:15:51.300Z,92.57
2018-11-21T05:16:17.456Z,92.57
2018-11-21T05:16:43.625Z,92.57
2018-11-21T05:17:09.823Z,92.47
2018-11-21T05:17:35.983Z,92.47
2018-11-21T05:18:02.114Z,92.38
2018-11-21T05:18:28.266Z,92.66
2018-11-21T05:18:54.396Z,92.66
2018-11-21T05:19:20.527Z,92.47
2018-11-21T05:19:46.712Z,92.38
2018-11-21T05:20:12.865Z,92.09
2018-11-21T05:20:38.997Z,92.85
2018-11-21T05:21:05.130Z,92.76
2018-11-21T05:21:31.261Z,92.85
2018-11-21T05:21:57.423Z,92.85
2018-11-21T05:22:23.550Z,92.57
2018-11-21T05:22:49.678Z,92.57
2018-11-21T05:23:15.811Z,92.47
2018-11-21T05:23:41.940Z,92.94
2018-11-21T05:24:08.097Z,93.13
2018-11-21T05:24:34.225Z,92.76
2018-11-21T05:25:00.355Z,92.94
2018-11-21T05:25:26.518Z,92.76
2018-11-21T05:25:52.646Z,92.94
2018-11-21T05:26:18.779Z,92.94
2018-11-21T05:26:44.913Z,92.94
2018-11-21T05:27:11.063Z,93.04
2018-11-21T05:27:37.192Z,92
2018-11-21T05:28:03.325Z,92.19
2018-11-21T05:28:29.454Z,92.09
2018-11-21T05:28:55.584Z,91.9
2018-11-21T05:29:21.719Z,92.09
2018-11-21T05:29:47.870Z,92.85
2018-11-21T05:30:14.001Z,92.28
2018-11-21T05:30:40.138Z,92.19
2018-11-21T05:31:06.302Z,92.19
2018-11-21T05:31:32.446Z,92.85
2018-11-21T05:31:58.575Z,92.28
2018-11-21T05:32:24.698Z,92.19
2018-11-21T05:32:50.838Z,92.28
2018-11-21T05:33:16.987Z,92.19
2018-11-21T05:33:43.117Z,92.47
2018-11-21T05:34:09.252Z,92.38
2018-11-21T05:34:35.385Z,92.38
2018-11-21T05:35:01.603Z,92.28
2018-11-21T05:35:27.751Z,92.19
2018-11-21T05:35:53.878Z,92.09
2018-11-21T05:36:20.008Z,92.28
2018-11-21T05:36:46.136Z,92.19
2018-11-21T05:37:12.263Z,92.38
2018-11-21T05:37:38.398Z,92.57
2018-11-21T05:38:04.530Z,92.28
2018-11-21T05:38:30.657Z,92.28
2018-11-21T05:38:56.791Z,92.66
2018-11-21T05:39:22.921Z,92.28